Time;durP1;ratioP1;P1;durP2;ratioP2;P2;SDS_P1;SDS_P2;PMS_P1;PMS_P2;Temp;Humidity;BMP_temperature;BMP_pressure;BME280_temperature;BME280_humidity;BME280_pressure;Samples;Min_cycle;Max_cycle;Signal;HPM_P1;HPM_P2
2023/05/04 00:00:54;;;;;;;;;;;;;;;2.97;84.82;102805.06;5035082;28;20380;-78
2023/05/04 00:03:20;;;;;;;;;;;;;;;2.94;84.89;102805.41;5041325;28;19978;-77
2023/05/04 00:05:45;;;;;;;;;;;;;;;2.95;85.10;102808.88;5056466;28;19935;-79
2023/05/04 00:08:11;;;;;;;;;;;;;;;3.08;85.36;102805.72;5048186;28;20022;-78
2023/05/04 00:10:37;;;;;;;;;;;;;;;3.04;85.03;102801.75;5034300;28;19933;-77
2023/05/04 00:13:02;;;;;;;;;;;;;;;2.97;85.02;102809.53;5038742;28;19938;-76
2023/05/04 00:15:29;;;;;;;;;;;;;;;2.95;85.10;102807.06;5034216;28;19942;-77
2023/05/04 00:17:54;;;;;;;;;;;;;;;2.91;84.89;102803.13;5034328;28;19969;-80
2023/05/04 00:20:20;;;;;;;;;;;;;;;2.89;85.12;102799.78;5035010;28;20693;-78
2023/05/04 00:22:46;;;;;;;;;;;;;;;2.78;85.25;102805.44;5033675;28;19935;-77
2023/05/04 00:25:12;;;;;;;;;;;;;;;2.76;85.55;102801.31;5031205;28;19939;-77
2023/05/04 00:27:37;;;;;;;;;;;;;;;2.73;85.36;102798.00;5033557;28;19950;-79
2023/05/04 00:30:03;;;;;;;;;;;;;;;2.66;85.49;102801.50;5027582;28;19932;-77
2023/05/04 00:32:29;;;;;;;;;;;;;;;2.60;86.13;102796.88;5038405;28;20310;-76
2023/05/04 00:34:55;;;;;;;;;;;;;;;2.61;85.97;102796.69;5020055;28;19942;-78
2023/05/04 00:37:21;;;;;;;;;;;;;;;2.58;85.83;102799.69;5048363;28;19948;-78
2023/05/04 00:39:46;;;;;;;;;;;;;;;2.56;85.70;102784.94;5031410;28;20042;-77
2023/05/04 00:42:12;;;;;;;;;;;;;;;2.51;86.13;102781.97;5040380;28;19944;-78
2023/05/04 00:44:40;;;;;;;;;;;;;;;2.57;86.20;102787.41;5038260;28;19942;-79
2023/05/04 00:47:06;;;;;;;;;;;;;;;2.57;85.84;102776.84;5033696;28;19945;-78
2023/05/04 00:49:32;;;;;;;;;;;;;;;2.48;86.14;102769.91;5041162;28;19941;-78
2023/05/04 00:51:57;;;;;;;;;;;;;;;2.45;86.48;102781.66;5039678;28;19931;-78
2023/05/04 00:54:23;;;;;;;;;;;;;;;2.39;86.49;102779.69;5037262;28;19942;-78
2023/05/04 00:56:49;;;;;;;;;;;;;;;2.34;86.54;102776.69;5036286;28;20361;-78
2023/05/04 00:59:15;;;;;;;;;;;;;;;2.32;87.13;102773.41;5031593;28;19963;-78
2023/05/04 01:01:41;;;;;;;;;;;;;;;2.28;86.93;102773.88;5033591;28;19992;-77
2023/05/04 01:04:07;;;;;;;;;;;;;;;2.28;87.02;102772.06;5027874;28;19958;-79
2023/05/04 01:06:51;;;;;;;;;;;;;;;2.24;87.24;102778.69;5035160;28;20426;-78
2023/05/04 01:09:29;;;;;;;;;;;;;;;2.32;86.99;102777.88;5035118;28;19928;-76
2023/05/04 01:12:03;;;;;;;;;;;;;;;2.24;87.14;102767.28;5042408;28;19935;-78
2023/05/04 01:14:29;;;;;;;;;;;;;;;2.22;86.99;102767.44;5003355;28;19937;-78
2023/05/04 01:16:58;;;;;;;;;;;;;;;2.22;87.16;102770.06;5024631;28;20042;-79
2023/05/04 01:19:26;;;;;;;;;;;;;;;2.22;87.05;102758.69;5018017;28;20412;-78
2023/05/04 01:21:52;;;;;;;;;;;;;;;2.19;86.87;102758.03;5025079;28;19968;-77
2023/05/04 01:24:18;;;;;;;;;;;;;;;2.21;87.03;102765.78;5026515;28;19984;-78
2023/05/04 01:26:45;;;;;;;;;;;;;;;2.22;87.01;102764.78;5039581;28;19950;-78
2023/05/04 01:29:21;;;;;;;;;;;;;;;2.22;86.69;102756.03;5032455;28;19929;-78
2023/05/04 01:31:47;;;;;;;;;;;;;;;2.23;86.88;102755.88;5032034;28;19929;-78
2023/05/04 01:34:14;;;;;;;;;;;;;;;2.11;87.06;102746.63;5032953;28;19945;-79
2023/05/04 01:36:40;;;;;;;;;;;;;;;2.10;87.13;102756.38;5033405;28;20007;-79
2023/05/04 01:39:08;;;;;;;;;;;;;;;2.08;86.77;102754.88;5030133;28;19983;-78
2023/05/04 01:41:34;;;;;;;;;;;;;;;2.07;87.09;102755.88;5017270;28;19940;-77
2023/05/04 01:44:00;;;;;;;;;;;;;;;2.01;87.23;102752.06;5030304;28;20495;-80
2023/05/04 01:46:26;;;;;;;;;;;;;;;2.13;87.24;102752.56;5027557;28;19957;-80
2023/05/04 01:48:51;;;;;;;;;;;;;;;2.13;87.19;102742.00;5028716;28;19928;-77
2023/05/04 01:51:17;;;;;;;;;;;;;;;2.06;87.50;102744.47;5032992;28;20033;-77
2023/05/04 01:53:43;;;;;;;;;;;;;;;2.01;87.56;102752.06;5028018;28;19956;-78
2023/05/04 01:56:08;;;;;;;;;;;;;;;1.92;87.68;102745.13;5023175;28;20043;-77
2023/05/04 01:58:34;;;;;;;;;;;;;;;1.89;87.47;102740.97;5043732;28;19955;-77
2023/05/04 02:01:00;;;;;;;;;;;;;;;1.91;87.91;102739.00;5047854;28;19932;-77
2023/05/04 02:03:26;;;;;;;;;;;;;;;1.99;88.14;102740.00;5029118;28;19977;-77
2023/05/04 02:05:52;;;;;;;;;;;;;;;1.96;87.68;102737.69;5035100;28;19995;-76
2023/05/04 02:08:18;;;;;;;;;;;;;;;1.91;87.78;102739.00;5047213;28;19950;-77
2023/05/04 02:10:43;;;;;;;;;;;;;;;1.90;87.82;102737.38;5033836;28;19961;-77
2023/05/04 02:13:09;;;;;;;;;;;;;;;1.85;88.00;102741.47;5014738;28;19936;-78
2023/05/04 02:15:35;;;;;;;;;;;;;;;1.84;87.93;102745.94;5031489;28;19937;-77
2023/05/04 02:18:00;;;;;;;;;;;;;;;1.80;87.94;102741.97;5028655;28;20470;-77
2023/05/04 02:20:26;;;;;;;;;;;;;;;1.79;88.19;102734.19;5009473;28;19994;-77
2023/05/04 02:22:51;;;;;;;;;;;;;;;1.76;88.26;102729.22;5028086;28;20365;-78
2023/05/04 02:25:17;;;;;;;;;;;;;;;1.74;87.69;102726.75;5024096;28;19937;-77
2023/05/04 02:27:43;;;;;;;;;;;;;;;1.79;87.72;102729.75;5024511;28;19946;-77
2023/05/04 02:30:09;;;;;;;;;;;;;;;1.74;88.09;102729.41;5030635;28;19956;-79
2023/05/04 02:32:35;;;;;;;;;;;;;;;1.76;88.19;102729.22;5031413;28;19936;-77
2023/05/04 02:35:01;;;;;;;;;;;;;;;1.72;88.06;102723.47;5030685;28;19937;-78
2023/05/04 02:37:27;;;;;;;;;;;;;;;1.68;88.01;102722.13;5021321;28;19958;-78
2023/05/04 02:39:53;;;;;;;;;;;;;;;1.68;88.30;102732.69;5034343;28;19953;-77
2023/05/04 02:42:19;;;;;;;;;;;;;;;1.65;88.39;102722.44;5044676;28;20028;-76
2023/05/04 02:44:45;;;;;;;;;;;;;;;1.66;87.95;102721.47;5028910;28;19981;-77
2023/05/04 02:47:10;;;;;;;;;;;;;;;1.64;87.93;102732.19;5042964;28;20008;-77
2023/05/04 02:49:36;;;;;;;;;;;;;;;1.61;88.32;102729.84;5015226;28;20405;-77
2023/05/04 02:52:02;;;;;;;;;;;;;;;1.63;88.22;102714.69;5029478;28;19929;-77
2023/05/04 02:54:27;;;;;;;;;;;;;;;1.72;88.34;102722.63;5033904;28;19936;-78
2023/05/04 02:56:53;;;;;;;;;;;;;;;1.65;88.22;102719.81;5029108;28;19954;-78
2023/05/04 02:59:19;;;;;;;;;;;;;;;1.72;88.37;102718.16;5029187;28;20240;-76
2023/05/04 03:01:44;;;;;;;;;;;;;;;1.59;88.43;102710.72;5027638;28;19943;-78
2023/05/04 03:04:10;;;;;;;;;;;;;;;1.58;88.20;102705.59;5043965;28;19949;-77
2023/05/04 03:06:36;;;;;;;;;;;;;;;1.57;88.65;102714.53;5023063;28;20404;-78
2023/05/04 03:09:03;;;;;;;;;;;;;;;1.55;88.70;102716.47;5035717;28;19945;-77
2023/05/04 03:11:28;;;;;;;;;;;;;;;1.51;88.71;102715.16;5047493;28;19938;-79
2023/05/04 03:13:54;;;;;;;;;;;;;;;1.49;88.46;102712.69;5047159;28;19991;-78
2023/05/04 03:16:20;;;;;;;;;;;;;;;1.46;88.48;102713.00;5026361;28;19987;-77
2023/05/04 03:18:45;;;;;;;;;;;;;;;1.47;88.51;102703.25;5047132;28;19967;-78
2023/05/04 03:21:10;;;;;;;;;;;;;;;1.50;88.66;102702.94;5024375;28;19985;-77
2023/05/04 03:23:36;;;;;;;;;;;;;;;1.46;88.82;102698.97;5024467;28;19943;-79
2023/05/04 03:26:02;;;;;;;;;;;;;;;1.43;88.78;102699.31;5028285;28;19943;-77
2023/05/04 03:28:27;;;;;;;;;;;;;;;1.43;88.68;102701.94;5026292;28;20339;-76
2023/05/04 03:30:53;;;;;;;;;;;;;;;1.39;88.62;102700.59;5030522;28;19930;-78
2023/05/04 03:33:20;;;;;;;;;;;;;;;1.39;88.81;102703.25;5031190;28;19932;-76
2023/05/04 03:35:45;;;;;;;;;;;;;;;1.37;88.92;102698.13;5032085;28;19990;-76
2023/05/04 03:38:11;;;;;;;;;;;;;;;1.40;88.87;102692.50;5017798;28;20038;-78
2023/05/04 03:40:37;;;;;;;;;;;;;;;1.31;89.16;102698.78;5037013;28;19961;-79
2023/05/04 03:43:03;;;;;;;;;;;;;;;1.26;88.95;102699.25;5029174;28;19927;-78
2023/05/04 03:45:29;;;;;;;;;;;;;;;1.29;89.17;102700.75;5034904;28;20003;-74
2023/05/04 03:47:56;;;;;;;;;;;;;;;1.33;89.06;102697.59;5035602;28;19967;-78
2023/05/04 03:50:22;;;;;;;;;;;;;;;1.41;88.89;102696.81;5033639;28;20008;-79
2023/05/04 03:52:48;;;;;;;;;;;;;;;1.45;88.99;102697.31;5017052;28;20038;-76
2023/05/04 03:55:15;;;;;;;;;;;;;;;1.49;88.97;102703.91;5012690;28;20009;-77
2023/05/04 03:57:45;;;;;;;;;;;;;;;1.45;88.93;102700.78;5031920;28;19951;-78
2023/05/04 04:00:11;;;;;;;;;;;;;;;1.46;88.92;102697.16;5009644;28;19954;-77
2023/05/04 04:02:40;;;;;;;;;;;;;;;1.55;88.67;102690.06;5031032;28;19933;-77
2023/05/04 04:05:06;;;;;;;;;;;;;;;1.60;88.64;102690.41;5050405;28;20691;-78
2023/05/04 04:07:33;;;;;;;;;;;;;;;1.62;88.75;102691.88;5021263;28;20040;-77
2023/05/04 04:09:59;;;;;;;;;;;;;;;1.69;88.56;102697.34;5032204;28;19943;-77
2023/05/04 04:12:25;;;;;;;;;;;;;;;1.74;88.60;102699.50;5016540;28;19932;-77
2023/05/04 04:14:53;;;;;;;;;;;;;;;1.86;88.17;102692.94;5037552;28;19928;-77
2023/05/04 04:17:18;;;;;;;;;;;;;;;2.02;87.96;102698.22;5040550;28;21273;-77
2023/05/04 04:19:44;;;;;;;;;;;;;;;2.14;87.45;102688.13;5031624;28;20015;-77
2023/05/04 04:22:09;;;;;;;;;;;;;;;2.21;87.63;102699.69;5017039;28;19935;-78
2023/05/04 04:24:35;;;;;;;;;;;;;;;2.24;87.62;102696.75;5038262;28;19946;-78
2023/05/04 04:27:01;;;;;;;;;;;;;;;2.30;87.49;102700.50;5026477;28;19957;-76
2023/05/04 04:29:26;;;;;;;;;;;;;;;2.31;87.66;102705.66;5032005;28;20317;-78
2023/05/04 04:31:51;;;;;;;;;;;;;;;2.35;87.68;102701.66;5039389;28;19931;-78
2023/05/04 04:34:17;;;;;;;;;;;;;;;2.41;87.27;102703.66;5016398;28;20691;-78
2023/05/04 04:36:43;;;;;;;;;;;;;;;2.65;86.81;102704.59;5034609;28;20004;-77
2023/05/04 04:39:09;;;;;;;;;;;;;;;2.89;86.66;102703.69;5046350;28;20000;-78
2023/05/04 04:41:35;;;;;;;;;;;;;;;3.07;85.83;102703.47;5043908;28;19935;-77
2023/05/04 04:44:01;;;;;;;;;;;;;;;3.23;86.05;102703.41;5042032;28;19939;-78
2023/05/04 04:46:26;;;;;;;;;;;;;;;3.46;84.82;102698.97;5042044;28;19942;-77
2023/05/04 04:48:53;;;;;;;;;;;;;;;3.64;83.97;102695.22;5015761;28;19954;-77
2023/05/04 04:51:18;;;;;;;;;;;;;;;3.85;82.70;102703.34;5035851;28;19935;-77
2023/05/04 04:53:44;;;;;;;;;;;;;;;3.98;82.99;102708.88;5024769;28;19985;-77
2023/05/04 04:56:10;;;;;;;;;;;;;;;4.06;83.06;102698.22;5039668;28;19940;-77
2023/05/04 04:58:36;;;;;;;;;;;;;;;4.22;82.25;102709.69;5014012;28;19958;-78
2023/05/04 05:01:03;;;;;;;;;;;;;;;4.41;80.09;102708.38;5032541;28;19991;-76
2023/05/04 05:03:28;;;;;;;;;;;;;;;4.62;78.52;102701.34;5036535;28;19968;-78
2023/05/04 05:05:54;;;;;;;;;;;;;;;4.75;78.26;102699.91;5046235;28;19981;-78
2023/05/04 05:08:20;;;;;;;;;;;;;;;4.91;77.37;102699.69;5030648;28;20039;-78
2023/05/04 05:10:45;;;;;;;;;;;;;;;5.04;76.51;102694.56;5034062;28;19956;-78
2023/05/04 05:13:11;;;;;;;;;;;;;;;5.20;75.18;102694.34;5033841;28;20354;-78
2023/05/04 05:15:37;;;;;;;;;;;;;;;5.27;75.34;102706.88;5033901;28;19939;-77
2023/05/04 05:18:02;;;;;;;;;;;;;;;5.41;73.83;102695.38;5026871;28;19990;-77
2023/05/04 05:20:28;;;;;;;;;;;;;;;5.48;74.29;102701.59;5030709;28;20464;-78
2023/05/04 05:22:54;;;;;;;;;;;;;;;5.66;73.26;102703.84;5022797;28;19942;-79
2023/05/04 05:25:19;;;;;;;;;;;;;;;5.97;72.83;102698.25;5046260;28;19945;-78
2023/05/04 05:27:45;;;;;;;;;;;;;;;6.01;72.76;102705.63;5030150;28;20007;-78
2023/05/04 05:30:10;;;;;;;;;;;;;;;6.33;70.97;102706.13;5025624;28;20337;-78
2023/05/04 05:32:37;;;;;;;;;;;;;;;6.23;71.18;102698.47;5028595;28;19939;-78
2023/05/04 05:35:03;;;;;;;;;;;;;;;6.36;70.84;102704.91;5046142;28;19936;-79
2023/05/04 05:37:30;;;;;;;;;;;;;;;6.37;71.38;102701.22;5033398;28;19954;-79
2023/05/04 05:39:55;;;;;;;;;;;;;;;6.56;69.62;102706.69;5040551;28;19951;-78
2023/05/04 05:42:21;;;;;;;;;;;;;;;6.67;69.40;102708.00;5037675;28;19940;-78
2023/05/04 05:44:46;;;;;;;;;;;;;;;6.82;69.09;102707.88;5035205;28;20090;-78
2023/05/04 05:47:12;;;;;;;;;;;;;;;6.90;68.51;102712.22;5032082;28;20006;-79
2023/05/04 05:49:37;;;;;;;;;;;;;;;7.05;67.06;102710.25;5035838;28;19929;-79
2023/05/04 05:52:03;;;;;;;;;;;;;;;7.26;66.52;102706.66;5029532;28;19940;-76
2023/05/04 05:54:29;;;;;;;;;;;;;;;7.42;66.25;102705.47;5041255;28;20624;-79
2023/05/04 05:56:54;;;;;;;;;;;;;;;7.53;65.63;102696.91;5033905;28;19952;-78
2023/05/04 05:59:21;;;;;;;;;;;;;;;7.77;64.88;102685.63;5028716;28;19947;-79
2023/05/04 06:01:46;;;;;;;;;;;;;;;8.04;63.95;102677.66;5028125;28;20452;-78
2023/05/04 06:04:12;;;;;;;;;;;;;;;8.20;63.88;102677.25;5035227;28;19979;-78
2023/05/04 06:06:37;;;;;;;;;;;;;;;8.30;63.90;102688.31;5037167;28;20022;-80
2023/05/04 06:09:04;;;;;;;;;;;;;;;8.46;63.61;102687.91;5027193;28;20028;-77
2023/05/04 06:11:30;;;;;;;;;;;;;;;8.58;62.21;102687.28;5019393;28;19938;-79
2023/05/04 06:13:56;;;;;;;;;;;;;;;8.61;62.71;102689.56;5034128;28;20559;-79
2023/05/04 06:16:22;;;;;;;;;;;;;;;8.68;61.35;102695.72;5034689;28;20010;-78
2023/05/04 06:18:47;;;;;;;;;;;;;;;8.95;59.39;102696.44;5038135;28;19931;-77
2023/05/04 06:21:13;;;;;;;;;;;;;;;8.93;60.80;102688.63;5029800;28;20022;-79
2023/05/04 06:23:39;;;;;;;;;;;;;;;9.06;60.04;102681.59;5035781;28;20177;-79
2023/05/04 06:26:06;;;;;;;;;;;;;;;9.28;60.02;102681.09;5035700;28;19970;-77
2023/05/04 06:28:32;;;;;;;;;;;;;;;9.23;59.73;102682.78;5042585;28;19947;-79
2023/05/04 06:30:58;;;;;;;;;;;;;;;9.32;58.99;102675.31;5034106;28;19938;-80
2023/05/04 06:33:23;;;;;;;;;;;;;;;9.43;58.41;102677.31;5032088;28;19959;-79
2023/05/04 06:35:51;;;;;;;;;;;;;;;9.51;58.39;102683.22;5035439;28;19944;-78
2023/05/04 06:38:16;;;;;;;;;;;;;;;9.43;58.71;102685.34;5032633;28;19963;-78
2023/05/04 06:40:42;;;;;;;;;;;;;;;9.57;59.52;102679.69;5030598;28;19959;-77
2023/05/04 06:43:07;;;;;;;;;;;;;;;9.45;59.25;102676.06;5031088;28;20059;-79
2023/05/04 06:45:34;;;;;;;;;;;;;;;9.58;59.21;102675.97;5031875;28;19984;-78
2023/05/04 06:47:59;;;;;;;;;;;;;;;9.51;59.70;102680.56;5047824;28;20033;-79
2023/05/04 06:50:25;;;;;;;;;;;;;;;9.84;58.75;102669.63;5029702;28;19971;-78
2023/05/04 06:52:51;;;;;;;;;;;;;;;10.12;58.09;102682.56;5022048;28;20009;-78
2023/05/04 06:55:17;;;;;;;;;;;;;;;9.98;58.42;102677.56;5021508;28;20053;-78
2023/05/04 06:57:43;;;;;;;;;;;;;;;9.96;58.06;102679.63;5022483;28;19946;-79
2023/05/04 07:00:09;;;;;;;;;;;;;;;10.34;58.01;102684.88;5043579;28;19994;-79
2023/05/04 07:02:35;;;;;;;;;;;;;;;10.42;57.72;102681.91;5031965;28;19936;-78
2023/05/04 07:05:01;;;;;;;;;;;;;;;10.52;57.16;102682.25;5047529;28;19938;-78
2023/05/04 07:07:27;;;;;;;;;;;;;;;10.55;56.26;102673.75;5012754;28;19957;-79
2023/05/04 07:09:53;;;;;;;;;;;;;;;10.57;56.36;102679.72;5021896;28;20024;-80
2023/05/04 07:12:18;;;;;;;;;;;;;;;10.52;56.68;102665.34;5009375;28;20431;-79
2023/05/04 07:14:44;;;;;;;;;;;;;;;10.73;56.00;102669.44;5031332;28;19931;-77
2023/05/04 07:17:10;;;;;;;;;;;;;;;10.44;56.73;102655.75;5026624;28;19950;-78
2023/05/04 07:19:36;;;;;;;;;;;;;;;10.97;56.93;102656.97;5027416;28;19952;-79
2023/05/04 07:22:02;;;;;;;;;;;;;;;10.89;55.66;102658.13;5033152;28;20383;-78
2023/05/04 07:24:28;;;;;;;;;;;;;;;11.08;55.47;102657.03;5028673;28;19979;-78
2023/05/04 07:26:54;;;;;;;;;;;;;;;11.21;54.62;102654.19;5029223;28;19948;-79
2023/05/04 07:29:19;;;;;;;;;;;;;;;11.17;55.81;102647.63;5027033;28;20420;-79
2023/05/04 07:31:45;;;;;;;;;;;;;;;11.19;55.11;102650.94;5034892;28;20039;-77
2023/05/04 07:34:10;;;;;;;;;;;;;;;10.96;56.13;102655.34;5040286;28;20345;-78
2023/05/04 07:36:36;;;;;;;;;;;;;;;11.09;55.39;102647.97;5015436;28;20738;-80
2023/05/04 07:39:01;;;;;;;;;;;;;;;11.27;54.93;102647.09;5017696;28;20045;-78
2023/05/04 07:41:27;;;;;;;;;;;;;;;11.39;55.13;102641.78;5040017;28;19983;-78
2023/05/04 07:43:53;;;;;;;;;;;;;;;11.24;54.91;102636.81;5028767;28;19950;-78
2023/05/04 07:46:19;;;;;;;;;;;;;;;11.52;53.76;102635.41;5027089;28;19988;-80
2023/05/04 07:48:44;;;;;;;;;;;;;;;11.54;54.08;102630.63;5033769;28;19941;-78
2023/05/04 07:51:13;;;;;;;;;;;;;;;11.90;53.71;102624.28;5023975;28;19944;-79
2023/05/04 07:53:39;;;;;;;;;;;;;;;11.74;53.61;102617.72;5014359;28;19979;-78
2023/05/04 07:56:09;;;;;;;;;;;;;;;11.93;53.15;102621.16;5011329;28;20422;-78
2023/05/04 07:58:34;;;;;;;;;;;;;;;11.92;53.64;102622.19;5026990;28;19948;-77
2023/05/04 08:01:00;;;;;;;;;;;;;;;12.20;52.84;102625.00;5026047;28;19950;-77
2023/05/04 08:03:25;;;;;;;;;;;;;;;12.33;52.46;102628.47;5034711;28;19956;-78
2023/05/04 08:05:51;;;;;;;;;;;;;;;12.65;52.36;102620.84;5010720;28;19949;-80
2023/05/04 08:08:19;;;;;;;;;;;;;;;12.35;52.24;102627.22;5030382;28;19954;-77
2023/05/04 08:10:45;;;;;;;;;;;;;;;12.40;52.58;102613.06;5021489;28;19940;-77
2023/05/04 08:13:10;;;;;;;;;;;;;;;13.01;51.66;102608.94;5024796;28;20320;-78
2023/05/04 08:15:36;;;;;;;;;;;;;;;12.89;51.56;102614.34;5030154;28;20406;-77
2023/05/04 08:18:02;;;;;;;;;;;;;;;13.06;51.53;102612.50;5040359;28;19953;-79
2023/05/04 08:20:27;;;;;;;;;;;;;;;12.99;50.86;102622.59;5029747;28;19950;-77
2023/05/04 08:22:53;;;;;;;;;;;;;;;13.11;50.62;102615.31;5027554;28;20672;-77
2023/05/04 08:25:21;;;;;;;;;;;;;;;12.96;50.00;102612.34;5046386;28;19933;-76
2023/05/04 08:27:47;;;;;;;;;;;;;;;12.96;51.07;102600.75;5023802;28;20029;-76
2023/05/04 08:30:13;;;;;;;;;;;;;;;12.89;50.51;102610.84;5028614;28;19951;-75
2023/05/04 08:32:39;;;;;;;;;;;;;;;12.73;50.85;102609.72;5032671;28;19941;-76
2023/05/04 08:35:05;;;;;;;;;;;;;;;12.77;51.28;102598.25;5030479;28;20475;-75
2023/05/04 08:37:33;;;;;;;;;;;;;;;12.81;50.75;102604.78;5031092;28;21326;-75
2023/05/04 08:39:59;;;;;;;;;;;;;;;12.81;50.20;102599.41;5027591;28;20323;-77
2023/05/04 08:42:31;;;;;;;;;;;;;;;12.80;50.68;102591.56;5037474;28;19942;-79
2023/05/04 08:44:57;;;;;;;;;;;;;;;12.80;50.74;102591.56;5034063;28;19960;-79
2023/05/04 08:47:24;;;;;;;;;;;;;;;12.97;49.99;102595.13;5026354;28;19954;-77
2023/05/04 08:49:49;;;;;;;;;;;;;;;13.25;50.76;102583.56;5016761;28;19932;-77
2023/05/04 08:52:16;;;;;;;;;;;;;;;13.17;50.73;102575.88;5025839;28;19970;-77
2023/05/04 08:54:43;;;;;;;;;;;;;;;13.53;50.08;102580.00;5028647;28;20019;-77
2023/05/04 08:57:10;;;;;;;;;;;;;;;13.72;50.00;102577.88;5036122;28;19998;-77
2023/05/04 08:59:36;;;;;;;;;;;;;;;13.71;49.45;102580.81;5025233;28;20007;-78
2023/05/04 09:02:02;;;;;;;;;;;;;;;13.78;48.27;102576.09;5026294;28;19994;-77
2023/05/04 09:04:29;;;;;;;;;;;;;;;13.68;48.82;102576.72;5018172;28;19925;-78
2023/05/04 09:06:56;;;;;;;;;;;;;;;13.91;49.15;102564.97;5042339;28;19948;-78
2023/05/04 09:09:24;;;;;;;;;;;;;;;13.98;49.43;102571.00;5031303;28;19942;-79
2023/05/04 09:11:49;;;;;;;;;;;;;;;14.04;48.99;102563.81;5013079;28;19930;-78
2023/05/04 09:14:15;;;;;;;;;;;;;;;14.18;50.19;102571.28;5011619;28;19939;-78
2023/05/04 09:16:41;;;;;;;;;;;;;;;13.77;49.01;102564.50;5027435;28;20333;-77
2023/05/04 09:19:16;;;;;;;;;;;;;;;14.11;49.39;102573.34;5032434;28;19956;-76
2023/05/04 09:21:43;;;;;;;;;;;;;;;14.59;48.17;102565.59;5025791;28;19940;-76
2023/05/04 09:24:08;;;;;;;;;;;;;;;14.72;47.83;102565.22;5034197;28;19934;-77
2023/05/04 09:26:34;;;;;;;;;;;;;;;14.22;46.28;102555.41;5011887;28;19929;-78
2023/05/04 09:29:13;;;;;;;;;;;;;;;14.26;47.12;102553.84;5023950;28;19936;-78
2023/05/04 09:31:46;;;;;;;;;;;;;;;14.74;46.18;102558.50;5024413;28;19934;-78
2023/05/04 09:34:15;;;;;;;;;;;;;;;14.73;46.21;102548.78;5029741;28;19957;-77
2023/05/04 09:36:41;;;;;;;;;;;;;;;14.56;46.32;102552.63;5035504;28;19946;-78
2023/05/04 09:39:14;;;;;;;;;;;;;;;14.51;47.09;102548.00;5017073;28;20299;-79
2023/05/04 09:41:40;;;;;;;;;;;;;;;15.03;48.55;102547.44;5032396;28;19934;-78
2023/05/04 09:44:22;;;;;;;;;;;;;;;15.23;45.97;102536.03;5022862;28;19947;-77
2023/05/04 09:46:52;;;;;;;;;;;;;;;14.87;45.16;102540.28;5047533;28;19947;-79
2023/05/04 09:49:19;;;;;;;;;;;;;;;15.31;44.50;102530.19;5033206;28;20403;-77
2023/05/04 09:51:46;;;;;;;;;;;;;;;14.84;45.30;102541.63;5036557;28;20305;-78
2023/05/04 09:54:13;;;;;;;;;;;;;;;14.89;44.87;102538.16;5021044;28;19936;-77
2023/05/04 09:56:38;;;;;;;;;;;;;;;15.13;44.54;102528.66;5027757;28;19945;-81
2023/05/04 09:59:04;;;;;;;;;;;;;;;15.11;43.78;102530.00;5032982;28;19953;-80
2023/05/04 10:01:30;;;;;;;;;;;;;;;15.37;45.28;102529.13;5027027;28;19941;-79
2023/05/04 10:03:56;;;;;;;;;;;;;;;15.36;45.69;102532.09;5028341;28;19953;-78
2023/05/04 10:06:23;;;;;;;;;;;;;;;15.16;45.02;102524.63;5030937;28;20021;-78
2023/05/04 10:08:48;;;;;;;;;;;;;;;15.40;44.35;102531.31;5043508;28;19942;-79
2023/05/04 10:11:17;;;;;;;;;;;;;;;16.00;42.82;102519.31;5049304;28;19947;-81
2023/05/04 10:13:43;;;;;;;;;;;;;;;16.13;43.94;102519.91;5035886;28;20407;-80
2023/05/04 10:16:18;;;;;;;;;;;;;;;15.75;44.56;102519.16;5031946;28;19940;-78
2023/05/04 10:18:59;;;;;;;;;;;;;;;16.07;43.69;102517.19;5008180;28;20761;-81
2023/05/04 10:21:46;;;;;;;;;;;;;;;15.46;41.54;102511.38;5044240;28;19953;-80
2023/05/04 10:24:22;;;;;;;;;;;;;;;15.79;42.01;102510.28;5030910;28;20422;-80
2023/05/04 10:27:07;;;;;;;;;;;;;;;16.11;43.88;102515.56;5024768;28;19945;-80
2023/05/04 10:29:33;;;;;;;;;;;;;;;16.13;42.20;102509.91;5049404;28;19936;-79
2023/05/04 10:31:59;;;;;;;;;;;;;;;16.41;43.12;102507.84;5026420;28;19946;-80
2023/05/04 10:34:25;;;;;;;;;;;;;;;15.67;42.69;102500.75;5014791;28;19937;-79
2023/05/04 10:36:51;;;;;;;;;;;;;;;15.65;41.90;102498.31;5031038;28;19956;-80
2023/05/04 10:39:18;;;;;;;;;;;;;;;16.01;41.94;102501.22;5032121;28;19964;-79
2023/05/04 10:42:02;;;;;;;;;;;;;;;16.19;41.65;102486.41;5027352;28;19992;-80
2023/05/04 10:44:29;;;;;;;;;;;;;;;16.24;41.23;102489.94;5029269;28;20093;-80
2023/05/04 10:47:05;;;;;;;;;;;;;;;15.99;40.69;102487.97;5020669;28;19960;-77
2023/05/04 10:49:32;;;;;;;;;;;;;;;15.81;43.07;102485.72;5043188;28;20462;-78
2023/05/04 10:52:06;;;;;;;;;;;;;;;15.75;41.82;102476.75;5024518;28;19995;-78
2023/05/04 10:54:32;;;;;;;;;;;;;;;15.58;42.02;102476.09;5022261;28;19934;-79
2023/05/04 10:57:06;;;;;;;;;;;;;;;15.98;41.96;102469.28;5034005;28;20048;-80
2023/05/04 10:59:31;;;;;;;;;;;;;;;16.48;40.30;102457.84;5046615;28;19999;-78
2023/05/04 11:02:00;;;;;;;;;;;;;;;16.36;40.85;102459.97;5023684;28;19937;-81
2023/05/04 11:04:25;;;;;;;;;;;;;;;15.89;40.51;102450.06;5023379;28;19938;-78
2023/05/04 11:06:58;;;;;;;;;;;;;;;15.32;42.07;102452.72;5049476;28;19978;-80
2023/05/04 11:09:25;;;;;;;;;;;;;;;15.39;41.54;102446.00;5027247;28;19939;-80
2023/05/04 11:11:51;;;;;;;;;;;;;;;16.21;41.96;102443.72;5030956;28;19967;-80
2023/05/04 11:14:23;;;;;;;;;;;;;;;15.98;40.49;102443.06;5047709;28;19945;-78
2023/05/04 11:16:48;;;;;;;;;;;;;;;15.61;41.14;102450.44;5038999;28;20477;-78
2023/05/04 11:19:16;;;;;;;;;;;;;;;16.16;41.08;102435.59;5032043;28;19955;-79
2023/05/04 11:21:42;;;;;;;;;;;;;;;16.66;39.75;102437.56;5038979;28;19942;-79
2023/05/04 11:24:07;;;;;;;;;;;;;;;16.90;38.31;102427.88;5054288;28;19937;-80
2023/05/04 11:26:43;;;;;;;;;;;;;;;16.42;39.73;102434.56;5015602;28;19937;-77
2023/05/04 11:29:12;;;;;;;;;;;;;;;16.23;38.65;102428.84;5031816;28;19931;-78
2023/05/04 11:31:38;;;;;;;;;;;;;;;16.63;39.42;102430.00;5029672;28;19939;-82
2023/05/04 11:34:05;;;;;;;;;;;;;;;16.61;39.45;102424.06;5012257;28;19948;-79
2023/05/04 11:36:34;;;;;;;;;;;;;;;17.07;39.22;102419.50;5033953;28;19993;-78
2023/05/04 11:39:00;;;;;;;;;;;;;;;16.73;39.90;102415.69;5033286;28;19940;-81
2023/05/04 11:41:28;;;;;;;;;;;;;;;16.63;38.77;102414.56;5022838;28;19933;-79
2023/05/04 11:43:54;;;;;;;;;;;;;;;16.99;38.51;102411.91;5030653;28;20061;-81
2023/05/04 11:46:19;;;;;;;;;;;;;;;17.00;37.47;102410.84;5024885;28;19939;-79
2023/05/04 11:48:46;;;;;;;;;;;;;;;17.17;37.94;102413.22;5019854;28;19951;-79
2023/05/04 11:51:12;;;;;;;;;;;;;;;17.16;37.15;102409.72;5030280;28;19945;-79
2023/05/04 11:53:38;;;;;;;;;;;;;;;17.34;36.31;102415.63;5024394;28;20450;-79
2023/05/04 11:56:04;;;;;;;;;;;;;;;17.63;37.36;102408.50;5034361;28;19942;-80
2023/05/04 11:58:30;;;;;;;;;;;;;;;17.76;36.96;102417.19;5041906;28;19956;-80
2023/05/04 12:00:56;;;;;;;;;;;;;;;17.17;36.88;102399.69;5056023;28;20376;-80
2023/05/04 12:03:30;;;;;;;;;;;;;;;17.72;36.25;102406.88;5036480;28;19941;-79
2023/05/04 12:05:57;;;;;;;;;;;;;;;17.65;36.69;102400.91;5055630;28;19939;-80
2023/05/04 12:08:31;;;;;;;;;;;;;;;18.36;38.77;102388.13;5037517;28;19985;-80
2023/05/04 12:11:15;;;;;;;;;;;;;;;18.81;35.98;102385.03;5029743;28;20582;-80
2023/05/04 12:13:45;;;;;;;;;;;;;;;18.96;36.19;102396.84;5037089;28;19933;-80
2023/05/04 12:16:11;;;;;;;;;;;;;;;19.51;35.35;102381.06;5038635;28;19947;-79
2023/05/04 12:18:37;;;;;;;;;;;;;;;19.78;34.67;102380.47;5028925;28;19983;-80
2023/05/04 12:21:06;;;;;;;;;;;;;;;19.67;33.48;102384.44;5025452;28;20011;-80
2023/05/04 12:23:32;;;;;;;;;;;;;;;19.19;35.26;102381.72;5029060;28;19951;-79
2023/05/04 12:25:57;;;;;;;;;;;;;;;19.02;35.85;102368.56;5029374;28;19937;-80
2023/05/04 12:28:25;;;;;;;;;;;;;;;18.25;37.50;102376.50;5016359;28;19950;-79
2023/05/04 12:30:52;;;;;;;;;;;;;;;18.15;36.47;102371.94;5036828;28;20095;-81
2023/05/04 12:33:17;;;;;;;;;;;;;;;18.87;35.66;102361.38;5034886;28;19978;-78
2023/05/04 12:35:43;;;;;;;;;;;;;;;18.58;35.45;102364.06;5029506;28;19945;-80
2023/05/04 12:38:09;;;;;;;;;;;;;;;19.13;34.66;102364.66;5021212;28;19967;-81
2023/05/04 12:40:35;;;;;;;;;;;;;;;18.23;35.32;102360.53;5035001;28;19956;-81